El Centro Naf Airport
KNJK : now visible

Airfield :











YOU CAN JOIN US ON...

 
LOGIN :

Register | Disclaimer

   EN    FR    IT 

 









Legend :    VFR   Marginal VFR   IFR   Intensive IFR   Very Intensive IFR
Visi :
Ceiling :
>= 8 km
>= 3000ft
5 to 8 km
1000 to 3000 ft
1500m to 5 km
500 to 1000 ft
800 to 1500m
200 to 500 ft
< 800m
< 200 ft
Symbols :   Thunderstorms  Fog  Heavy snow  Heavy precipitations  Wind > 20 kt






- Airport Elevation : -42 ft


KNJK - El Centro Naf

CURRENT METAR :
  • 250256Z 25016KT 10SM FEW100 36/08 A2974 RMK AO2 SLP085 T03610078 51007 $

EXPIRED METARs :
  • 250247Z COR 25017KT 10SM FEW100 36/08 A2974 RMK AO2 T03610083 $
  • 250156Z 25019KT 10SM FEW100 38/09 A2973 RMK AO2 PK WND 26026/0114 WSHFT 0043 SLP082 T03830094 $
  • 250103Z 25017KT 10SM CLR 41/10 A2972 RMK AO2 WSHFT 0043 T04060100 $
  • 250056Z 24018G23KT 10SM FEW100 41/09 A2972 RMK AO2 SLP078 T04110094 $

TAF TAF KNJK
Valid from the 24 at 23:00 until the 25 at 23:00 UTC


2423/2523 14006KT 9999 FEW100 QNH2970INS
FM250130 26012G25KT 9999 SKC QNH2970INS
FM250430 25007KT 9999 SKC QNH2976INS
FM251700 VRB04KT 9999 SKC QNH2968INS AUTOMATED SENSOR METWATCH 2506 TIL 2513 T23/2513Z T41/2522Z FS30130
KZLA FIR / North America



MET'MAP, your aeronautical weather chart ! - Copyright ORBIFLY December 2007 - Disclaimer

ORBIFLY MET'MAP TEAM :

Programming & Development : Alexandra Zaïnal
Concept & original design : Baudouin d'Aumeries
Assistance for programming : Marc-Olivier Méhu
Technical & hardware support : Manuel Goepfert

Contact : metmap@orbifly.com




SOURCES & CREDITS :

   NOAA       Earth
Advisory